Time;durP1;ratioP1;P1;durP2;ratioP2;P2;SDS_P1;SDS_P2;PMS_P1;PMS_P2;Temp;Humidity;BMP_temperature;BMP_pressure;BME280_temperature;BME280_humidity;BME280_pressure;Samples;Min_cycle;Max_cycle;Signal;HPM_P1;HPM_P2
2021/10/11 19:37:33;;;;;;;;;;;20.80;54.80;;;;;;5112922;27;19912;-77
2021/10/11 19:39:58;;;;;;;;;;;25.10;43.90;;;;;;5127135;27;19922;-79
2021/10/11 19:42:26;;;;;;;;;;;25.20;43.00;;;;;;5094140;28;19930;-81
2021/10/11 19:44:52;;;;;;;;;;;25.40;42.80;;;;;;5111901;28;19908;-81
2021/10/11 19:47:18;;;;;;;;;;;25.50;42.70;;;;;;5111868;28;19908;-79
2021/10/11 19:49:51;;;;;;;;;;;25.60;42.60;;;;;;5111868;28;19908;-80
2021/10/11 19:52:17;;;;;;;;;;;25.70;42.70;;;;;;5112776;28;20333;-77
2021/10/11 19:54:43;;;;;;;;;;;25.70;42.60;;;;;;5094785;28;20015;-79
2021/10/11 19:57:08;;;;;;;;;;;25.70;42.60;;;;;;5127978;28;19911;-78
2021/10/11 19:59:36;;;;;;;;;;;25.70;42.70;;;;;;5132539;28;19919;-78
2021/10/11 20:02:02;;;;;;;;;;;25.70;43.40;;;;;;5132355;28;19908;-79
2021/10/11 20:04:30;;;;;;;;;;;25.80;42.90;;;;;;5132305;28;19930;-79
2021/10/11 20:06:55;;;;;;;;;;;25.80;42.90;;;;;;5115420;28;19981;-80
2021/10/11 20:09:21;;;;;;;;;;;25.80;43.00;;;;;;5133247;28;19932;-77
2021/10/11 20:11:48;;;;;;;;;;;25.80;43.00;;;;;;5131930;28;19908;-79
2021/10/11 20:14:14;;;;;;;;;;;25.80;43.00;;;;;;5131939;28;19908;-76
2021/10/11 20:16:40;;;;;;;;;;;25.80;43.20;;;;;;5114628;28;19911;-79
2021/10/11 20:19:07;;;;;;;;;;;25.80;43.20;;;;;;5132715;28;19915;-81
2021/10/11 20:21:35;;;;;;;;;;;25.80;43.30;;;;;;5114953;28;19908;-78
2021/10/11 20:24:06;;;;;;;;;;;25.80;43.30;;;;;;5131677;28;20317;-79
2021/10/11 20:26:31;;;;;;;;;;;25.90;43.40;;;;;;5114990;28;19907;-78
2021/10/11 20:28:57;;;;;;;;;;;25.90;43.50;;;;;;5131540;28;20391;-78
2021/10/11 20:31:22;;;;;;;;;;;25.80;43.60;;;;;;5131928;28;19919;-78
2021/10/11 20:33:48;;;;;;;;;;;25.80;43.60;;;;;;5132513;28;19908;-78
2021/10/11 20:36:16;;;;;;;;;;;25.80;43.70;;;;;;5131206;28;20363;-78
2021/10/11 20:38:44;;;;;;;;;;;25.90;43.80;;;;;;5132197;28;20000;-80
2021/10/11 20:41:11;;;;;;;;;;;25.80;43.80;;;;;;5131472;28;20375;-78
2021/10/11 20:43:37;;;;;;;;;;;25.80;43.80;;;;;;5132256;28;19908;-77
2021/10/11 20:46:05;;;;;;;;;;;25.80;44.00;;;;;;5132109;28;20052;-76
2021/10/11 20:48:33;;;;;;;;;;;25.70;44.20;;;;;;5120000;28;19943;-77
2021/10/11 20:50:58;;;;;;;;;;;25.70;44.40;;;;;;5118265;28;19918;-79
2021/10/11 20:53:26;;;;;;;;;;;25.60;44.60;;;;;;5118261;28;20452;-80
2021/10/11 20:55:52;;;;;;;;;;;25.60;44.60;;;;;;5117298;28;19912;-78
2021/10/11 20:58:17;;;;;;;;;;;25.60;44.90;;;;;;5100609;28;19919;-80
2021/10/11 21:00:43;;;;;;;;;;;25.50;44.90;;;;;;5100625;28;20010;-79
2021/10/11 21:03:11;;;;;;;;;;;25.60;45.10;;;;;;5118214;28;20320;-81
2021/10/11 21:05:39;;;;;;;;;;;25.50;45.00;;;;;;5100676;28;19908;-81
2021/10/11 21:08:05;;;;;;;;;;;25.60;45.10;;;;;;5117282;28;19916;-79
2021/10/11 21:10:35;;;;;;;;;;;25.50;45.00;;;;;;5100482;28;19908;-82
2021/10/11 21:13:03;;;;;;;;;;;25.50;44.90;;;;;;5117254;28;20282;-85
2021/10/11 21:15:31;;;;;;;;;;;25.50;44.80;;;;;;5117097;28;19913;-76
2021/10/11 21:17:59;;;;;;;;;;;25.50;44.80;;;;;;5117384;28;19908;-79
2021/10/11 21:20:25;;;;;;;;;;;25.50;44.80;;;;;;5117877;28;19912;-81
2021/10/11 21:22:53;;;;;;;;;;;25.50;44.90;;;;;;5117279;28;20232;-80
2021/10/11 21:25:21;;;;;;;;;;;25.50;44.90;;;;;;5117811;28;20413;-80
2021/10/11 21:27:46;;;;;;;;;;;25.50;44.90;;;;;;5116682;28;19919;-81
2021/10/11 21:30:12;;;;;;;;;;;25.50;44.90;;;;;;5099729;28;19908;-82
2021/10/11 21:32:38;;;;;;;;;;;25.50;45.10;;;;;;5117060;28;19919;-79
2021/10/11 21:35:05;;;;;;;;;;;25.50;45.10;;;;;;5117004;28;19914;-81
2021/10/11 21:37:31;;;;;;;;;;;25.50;45.10;;;;;;5099965;28;19923;-79
2021/10/11 21:39:56;;;;;;;;;;;25.40;45.00;;;;;;5099504;28;19908;-78
2021/10/11 21:42:24;;;;;;;;;;;25.50;45.10;;;;;;5117506;28;19915;-78
2021/10/11 21:44:50;;;;;;;;;;;25.50;45.10;;;;;;5099746;28;20336;-80
2021/10/11 21:47:15;;;;;;;;;;;25.50;45.10;;;;;;5117232;28;19907;-79
2021/10/11 21:49:43;;;;;;;;;;;25.50;45.20;;;;;;5117398;28;19916;-80
2021/10/11 21:52:08;;;;;;;;;;;25.50;45.20;;;;;;5117436;28;19911;-79
2021/10/11 21:54:34;;;;;;;;;;;25.50;45.20;;;;;;5116420;28;19911;-82
2021/10/11 21:56:59;;;;;;;;;;;25.40;45.20;;;;;;5085145;28;20345;-81
2021/10/11 21:59:25;;;;;;;;;;;25.50;45.30;;;;;;5096177;28;19948;-78
2021/10/11 22:01:50;;;;;;;;;;;25.50;45.30;;;;;;5096098;28;19908;-78
2021/10/11 22:04:18;;;;;;;;;;;25.40;45.30;;;;;;5095754;28;19915;-80
2021/10/11 22:06:46;;;;;;;;;;;25.40;45.30;;;;;;5095827;28;19999;-81
2021/10/11 22:09:14;;;;;;;;;;;25.40;45.40;;;;;;5095974;28;19908;-80
2021/10/11 22:11:40;;;;;;;;;;;25.40;45.40;;;;;;5095860;28;19923;-81
2021/10/11 22:14:05;;;;;;;;;;;25.40;45.40;;;;;;5095909;28;19908;-78
2021/10/11 22:16:31;;;;;;;;;;;25.40;45.50;;;;;;5095557;28;20287;-79
2021/10/11 22:18:59;;;;;;;;;;;25.40;45.50;;;;;;5078744;28;19918;-78
2021/10/11 22:21:26;;;;;;;;;;;25.40;45.50;;;;;;5095618;28;19965;-78
2021/10/11 22:23:53;;;;;;;;;;;25.40;45.60;;;;;;5095690;28;20379;-77
2021/10/11 22:26:18;;;;;;;;;;;25.30;45.60;;;;;;5078861;28;19938;-80
2021/10/11 22:28:44;;;;;;;;;;;25.40;45.60;;;;;;5095653;28;19916;-78
2021/10/11 22:31:09;;;;;;;;;;;25.40;45.60;;;;;;5096407;28;20259;-79
2021/10/11 22:33:37;;;;;;;;;;;25.40;46.20;;;;;;5096352;28;20275;-82
2021/10/11 22:36:03;;;;;;;;;;;25.40;45.60;;;;;;5095074;28;19920;-77
2021/10/11 22:38:29;;;;;;;;;;;25.40;45.70;;;;;;5095571;28;19994;-79
2021/10/11 22:40:54;;;;;;;;;;;25.40;45.60;;;;;;5095848;28;19958;-78
2021/10/11 22:43:20;;;;;;;;;;;25.30;45.70;;;;;;5095297;28;20006;-79
2021/10/11 22:45:45;;;;;;;;;;;25.30;45.70;;;;;;5078249;28;19918;-78
2021/10/11 22:48:11;;;;;;;;;;;25.30;45.80;;;;;;5095065;28;19981;-80
2021/10/11 22:50:40;;;;;;;;;;;25.30;45.80;;;;;;5078029;28;19951;-78
2021/10/11 22:53:08;;;;;;;;;;;25.30;45.80;;;;;;5094859;28;19915;-79
2021/10/11 22:55:34;;;;;;;;;;;25.30;45.80;;;;;;5096689;28;19915;-84
2021/10/11 22:57:59;;;;;;;;;;;25.30;45.90;;;;;;5116564;28;19908;-81
2021/10/11 23:00:25;;;;;;;;;;;25.30;45.90;;;;;;5116131;28;20007;-78
2021/10/11 23:02:53;;;;;;;;;;;25.30;45.90;;;;;;5115215;28;19947;-79
2021/10/11 23:05:21;;;;;;;;;;;25.30;46.00;;;;;;5098432;28;19908;-81
2021/10/11 23:07:47;;;;;;;;;;;25.30;46.00;;;;;;5098686;28;19971;-84
2021/10/11 23:10:13;;;;;;;;;;;25.30;46.00;;;;;;5098012;28;19969;-78
2021/10/11 23:12:39;;;;;;;;;;;25.30;46.00;;;;;;5115129;28;20263;-79
2021/10/11 23:15:04;;;;;;;;;;;25.20;46.00;;;;;;5115631;28;19918;-76
2021/10/11 23:17:32;;;;;;;;;;;25.20;46.10;;;;;;5097820;28;20031;-78
2021/10/11 23:19:58;;;;;;;;;;;25.20;46.10;;;;;;5115779;28;19968;-77
2021/10/11 23:22:26;;;;;;;;;;;25.20;46.10;;;;;;5097733;28;20248;-82
2021/10/11 23:24:51;;;;;;;;;;;25.20;46.10;;;;;;5098363;28;19907;-77
2021/10/11 23:27:17;;;;;;;;;;;25.20;46.20;;;;;;5098155;28;19991;-79
2021/10/11 23:29:43;;;;;;;;;;;25.20;46.10;;;;;;5097743;28;19908;-78
2021/10/11 23:32:09;;;;;;;;;;;25.20;46.20;;;;;;5097552;28;19911;-80
2021/10/11 23:34:34;;;;;;;;;;;25.20;46.20;;;;;;5097806;28;19907;-81
2021/10/11 23:37:02;;;;;;;;;;;25.20;46.20;;;;;;5114644;28;19942;-77
2021/10/11 23:39:30;;;;;;;;;;;25.20;46.20;;;;;;5114670;28;19941;-84
2021/10/11 23:41:56;;;;;;;;;;;25.20;46.20;;;;;;5098012;28;19915;-80
2021/10/11 23:44:21;;;;;;;;;;;25.20;46.20;;;;;;5097852;28;19912;-80
2021/10/11 23:46:49;;;;;;;;;;;25.20;46.30;;;;;;5115449;28;19973;-77
2021/10/11 23:49:15;;;;;;;;;;;25.20;46.30;;;;;;5114435;28;20267;-81
2021/10/11 23:51:40;;;;;;;;;;;25.20;46.30;;;;;;5115293;28;19990;-81
2021/10/11 23:54:06;;;;;;;;;;;25.20;46.30;;;;;;5114756;28;19908;-78
2021/10/11 23:56:31;;;;;;;;;;;25.20;46.30;;;;;;5114356;28;19962;-80
2021/10/11 23:58:59;;;;;;;;;;;25.20;46.30;;;;;;5114640;28;20003;-81
